createdAt,value
2023-01-30T00:03:06.152Z,100270.29
2023-01-30T00:07:59.015Z,100267.16
2023-01-30T00:12:51.901Z,100261.55
2023-01-30T00:17:44.830Z,100255.54
2023-01-30T00:22:37.718Z,100238.57
2023-01-30T00:27:31.399Z,100225.15
2023-01-30T00:32:26.623Z,100217.75
2023-01-30T00:37:20.048Z,100200.73
2023-01-30T00:42:30.475Z,100197.90
2023-01-30T00:47:23.977Z,100189.96
2023-01-30T00:52:19.517Z,100167.04
2023-01-30T00:57:12.293Z,100151.04
2023-01-30T01:02:05.122Z,100142.45
2023-01-30T01:06:59.393Z,100129.83
2023-01-30T01:11:52.153Z,100110.58
2023-01-30T01:16:45.361Z,100105.83
2023-01-30T01:21:39.650Z,100097.14
2023-01-30T01:26:32.592Z,100084.04
2023-01-30T01:31:26.055Z,100066.04
2023-01-30T01:36:49.623Z,100050.19
2023-01-30T01:41:35.486Z,100027.72
2023-01-30T01:46:46.649Z,100024.13
2023-01-30T01:51:53.298Z,100013.23
2023-01-30T01:56:50.193Z,100005.15
2023-01-30T02:01:44.501Z,99995.24
2023-01-30T02:06:40.474Z,99979.50
2023-01-30T02:11:52.275Z,99974.44
2023-01-30T02:16:47.870Z,99961.48
2023-01-30T02:22:15.614Z,99957.42
2023-01-30T02:27:28.342Z,99960.25
2023-01-30T02:32:51.889Z,99947.30
2023-01-30T02:38:14.191Z,99944.11
2023-01-30T02:43:16.389Z,99930.69
2023-01-30T02:48:15.666Z,99921.17
2023-01-30T02:53:09.831Z,99915.80
2023-01-30T02:58:05.068Z,99903.61
2023-01-30T03:03:49.355Z,99893.61
2023-01-30T03:09:11.383Z,99886.04
2023-01-30T03:14:13.073Z,99880.03
2023-01-30T03:19:08.316Z,99862.83
2023-01-30T03:24:01.240Z,99852.54
2023-01-30T03:28:55.009Z,99841.16
2023-01-30T03:33:48.043Z,99824.04
2023-01-30T03:38:41.517Z,99802.37
2023-01-30T03:43:34.749Z,99789.73
2023-01-30T03:48:29.018Z,99775.50
2023-01-30T03:53:22.301Z,99768.23
2023-01-30T03:58:15.188Z,99763.36
2023-01-30T04:03:08.130Z,99760.56
2023-01-30T04:08:01.467Z,99750.80
2023-01-30T04:12:54.556Z,99748.66
2023-01-30T04:17:49.228Z,99743.24
2023-01-30T04:23:14.773Z,99723.83
2023-01-30T04:28:07.857Z,99718.23
2023-01-30T04:33:03.401Z,99705.50
2023-01-30T04:37:56.719Z,99697.91
2023-01-30T04:42:49.560Z,99673.45
2023-01-30T04:48:08.830Z,99658.59
2023-01-30T04:53:02.485Z,99647.66
2023-01-30T04:57:55.682Z,99640.17
2023-01-30T05:02:49.966Z,99633.58
2023-01-30T05:07:46.763Z,99625.04
2023-01-30T05:12:39.592Z,99622.52
2023-01-30T05:17:32.472Z,99612.85
2023-01-30T05:22:25.388Z,99606.98
2023-01-30T05:27:18.308Z,99604.70
2023-01-30T05:32:15.707Z,99590.73
2023-01-30T05:37:08.425Z,99573.28
2023-01-30T05:42:01.240Z,99551.83
2023-01-30T05:46:54.087Z,99540.36
2023-01-30T05:51:47.271Z,99525.69
2023-01-30T05:56:40.156Z,99521.23
2023-01-30T06:01:33.070Z,99513.10
2023-01-30T06:06:27.106Z,99504.99
2023-01-30T06:11:20.049Z,99515.73
2023-01-30T06:16:14.987Z,99517.55
2023-01-30T06:21:08.473Z,99503.98
2023-01-30T06:26:04.603Z,99488.77
2023-01-30T06:30:58.348Z,99471.15
2023-01-30T06:35:53.312Z,99450.80
2023-01-30T06:40:47.808Z,99442.09
2023-01-30T06:45:40.599Z,99434.47
2023-01-30T06:50:34.143Z,99446.23
2023-01-30T06:55:28.582Z,99451.02
2023-01-30T07:00:21.884Z,99445.59
2023-01-30T07:05:14.765Z,99430.95
2023-01-30T07:10:09.567Z,99415.39
2023-01-30T07:15:02.376Z,99416.29
2023-01-30T07:19:55.231Z,99415.60
2023-01-30T07:24:48.037Z,99408.39
2023-01-30T07:29:42.089Z,99391.94
2023-01-30T07:34:35.330Z,99391.61
2023-01-30T07:39:28.152Z,99392.80
2023-01-30T07:44:21.103Z,99393.68
2023-01-30T07:49:13.936Z,99390.60
2023-01-30T07:54:06.764Z,99374.23
2023-01-30T07:58:59.572Z,99365.73
2023-01-30T08:03:52.388Z,99351.28
2023-01-30T08:08:45.399Z,99346.69
2023-01-30T08:13:38.568Z,99337.55
2023-01-30T08:18:32.664Z,99334.00
2023-01-30T08:23:25.469Z,99331.91
2023-01-30T08:28:18.315Z,99327.70
2023-01-30T08:33:11.340Z,99320.02
2023-01-30T08:38:09.071Z,99319.30
2023-01-30T08:43:02.101Z,99312.45
2023-01-30T08:47:55.188Z,99313.34
2023-01-30T08:52:48.081Z,99307.84
2023-01-30T08:57:40.918Z,99307.20
2023-01-30T09:02:33.741Z,99305.00
2023-01-30T09:07:28.893Z,99295.06
2023-01-30T09:12:21.905Z,99282.27
2023-01-30T09:17:15.201Z,99270.27
2023-01-30T09:22:08.825Z,99255.16
2023-01-30T09:27:01.662Z,99249.62
2023-01-30T09:31:56.636Z,99252.37
2023-01-30T09:36:49.435Z,99235.56
2023-01-30T09:42:00.753Z,99227.55
2023-01-30T09:47:12.371Z,99220.95
2023-01-30T09:52:26.757Z,99215.52
2023-01-30T09:57:25.606Z,99214.89
2023-01-30T10:02:41.080Z,99199.91
2023-01-30T10:07:36.667Z,99183.78
2023-01-30T10:12:45.030Z,99182.48
2023-01-30T10:18:24.862Z,99163.20
2023-01-30T10:23:45.127Z,99154.73
2023-01-30T10:28:58.804Z,99151.94
2023-01-30T10:34:03.980Z,99148.05
2023-01-30T10:39:00.849Z,99134.84
2023-01-30T10:44:14.371Z,99125.86
2023-01-30T10:49:20.949Z,99121.48
2023-01-30T10:54:42.870Z,99113.03
2023-01-30T11:00:02.551Z,99099.48
2023-01-30T11:05:01.719Z,99094.86
2023-01-30T11:09:54.549Z,99089.41
2023-01-30T11:15:00.022Z,99083.07
2023-01-30T11:19:58.154Z,99080.45
2023-01-30T11:25:01.911Z,99074.60
2023-01-30T11:30:31.742Z,99067.94
2023-01-30T11:35:28.312Z,99057.05
2023-01-30T11:40:22.050Z,99047.83
2023-01-30T11:45:18.064Z,99037.05
2023-01-30T11:50:25.390Z,99033.86
2023-01-30T11:55:23.309Z,99030.82
2023-01-30T12:00:22.520Z,99028.93
2023-01-30T12:05:26.356Z,99032.38
2023-01-30T12:10:31.208Z,99019.50
2023-01-30T12:15:30.696Z,99013.55
2023-01-30T12:20:40.876Z,99014.50
2023-01-30T12:25:41.839Z,99017.75
2023-01-30T12:30:56.656Z,99012.56
2023-01-30T12:36:15.282Z,99009.02
2023-01-30T12:41:29.825Z,99001.05
2023-01-30T12:46:34.725Z,99001.69
2023-01-30T12:51:33.664Z,98995.16
2023-01-30T12:56:26.408Z,98998.58
2023-01-30T13:01:57.178Z,99006.58
2023-01-30T13:07:08.778Z,99008.80
2023-01-30T13:12:16.649Z,99005.26
2023-01-30T13:17:39.015Z,98997.95
2023-01-30T13:22:50.931Z,98987.16
2023-01-30T13:27:56.464Z,98983.80
2023-01-30T13:32:53.078Z,98986.52
2023-01-30T13:37:48.728Z,98986.48
2023-01-30T13:43:00.298Z,98978.66
2023-01-30T13:48:21.073Z,98974.07
2023-01-30T13:53:25.157Z,98971.84
2023-01-30T13:58:41.633Z,98979.04
2023-01-30T14:03:35.445Z,98972.27
2023-01-30T14:08:29.388Z,98962.44
2023-01-30T14:13:24.306Z,98963.35
2023-01-30T14:18:25.214Z,98979.42
2023-01-30T14:23:36.897Z,98991.79
2023-01-30T14:28:32.651Z,98993.54
2023-01-30T14:33:25.426Z,98994.80
2023-01-30T14:38:23.070Z,99002.38
2023-01-30T14:43:15.919Z,99008.57
2023-01-30T14:48:44.551Z,99007.26
2023-01-30T14:53:49.898Z,99011.91
2023-01-30T14:58:53.342Z,99015.54
2023-01-30T15:03:50.269Z,99021.23
2023-01-30T15:08:44.894Z,99015.13
2023-01-30T15:13:54.673Z,99009.69
2023-01-30T15:19:11.247Z,99011.89
2023-01-30T15:24:19.809Z,99013.23
2023-01-30T15:29:37.688Z,99015.25
2023-01-30T15:34:32.524Z,99008.42
2023-01-30T15:39:28.121Z,99011.48
2023-01-30T15:44:46.185Z,99021.05
2023-01-30T15:49:52.158Z,99032.14
2023-01-30T15:54:57.500Z,99042.86
2023-01-30T15:59:50.802Z,99061.81
2023-01-30T16:04:43.612Z,99048.01
2023-01-30T16:09:36.417Z,99051.95
2023-01-30T16:14:29.224Z,99055.02
2023-01-30T16:19:28.321Z,99064.24
2023-01-30T16:24:29.157Z,99067.67
2023-01-30T16:29:25.583Z,99058.30
2023-01-30T16:34:36.457Z,99052.51
2023-01-30T16:39:34.868Z,99048.80
2023-01-30T16:44:30.060Z,99035.35
2023-01-30T16:49:38.279Z,99047.16
2023-01-30T16:54:33.348Z,99062.73
2023-01-30T16:59:48.560Z,99066.86
2023-01-30T17:04:43.404Z,99065.73
2023-01-30T17:09:43.778Z,99063.73
2023-01-30T17:14:36.633Z,99061.17
2023-01-30T17:19:29.824Z,99051.13
2023-01-30T17:24:24.513Z,99054.95
2023-01-30T17:29:29.024Z,99051.08
2023-01-30T17:34:31.197Z,99057.66
2023-01-30T17:39:26.949Z,99058.45
2023-01-30T17:44:19.783Z,99064.46
2023-01-30T17:49:18.348Z,99073.89
2023-01-30T17:54:12.202Z,99070.35
2023-01-30T17:59:13.754Z,99065.28
2023-01-30T18:04:06.688Z,99064.52
2023-01-30T18:08:59.588Z,99075.33
2023-01-30T18:13:52.451Z,99074.20
2023-01-30T18:18:45.481Z,99076.05
2023-01-30T18:23:38.477Z,99080.77
2023-01-30T18:28:31.400Z,99072.83
2023-01-30T18:33:24.266Z,99077.70
2023-01-30T18:38:17.870Z,99090.56
2023-01-30T18:43:10.713Z,99089.77
2023-01-30T18:48:03.539Z,99088.33
2023-01-30T18:52:56.342Z,99086.67
2023-01-30T18:57:49.155Z,99085.36
2023-01-30T19:02:42.041Z,99087.64
2023-01-30T19:07:36.421Z,99084.63
2023-01-30T19:12:46.682Z,99081.73
2023-01-30T19:17:39.569Z,99080.17
2023-01-30T19:22:32.341Z,99079.02
2023-01-30T19:27:26.022Z,99081.40
2023-01-30T19:32:18.865Z,99082.61
2023-01-30T19:37:12.594Z,99080.21
2023-01-30T19:42:05.730Z,99082.91
2023-01-30T19:46:58.943Z,99083.30
2023-01-30T19:51:51.723Z,99083.45
2023-01-30T19:56:48.531Z,99083.13
2023-01-30T20:01:41.334Z,99089.02
2023-01-30T20:06:36.388Z,99085.84
2023-01-30T20:11:30.720Z,99084.70
2023-01-30T20:16:27.564Z,99095.02
2023-01-30T20:21:22.051Z,99092.14
2023-01-30T20:26:20.806Z,99091.84
2023-01-30T20:31:18.881Z,99091.91
2023-01-30T20:36:14.350Z,99090.10
2023-01-30T20:41:10.360Z,99098.52
2023-01-30T20:46:08.759Z,99113.05
2023-01-30T20:51:07.056Z,99127.42
2023-01-30T20:56:00.901Z,99145.06
2023-01-30T21:00:54.006Z,99147.63
2023-01-30T21:05:57.327Z,99147.33
2023-01-30T21:10:50.551Z,99150.95
2023-01-30T21:15:43.325Z,99154.92
2023-01-30T21:20:36.118Z,99161.80
2023-01-30T21:25:28.942Z,99169.86
2023-01-30T21:30:21.730Z,99176.02
2023-01-30T21:35:14.624Z,99175.69
2023-01-30T21:40:25.822Z,99177.08
2023-01-30T21:45:21.125Z,99179.80
2023-01-30T21:50:14.462Z,99185.59
2023-01-30T21:55:07.647Z,99180.13
2023-01-30T22:00:01.011Z,99181.80
2023-01-30T22:04:53.926Z,99192.56
2023-01-30T22:09:49.036Z,99194.75
2023-01-30T22:14:41.997Z,99194.55
2023-01-30T22:19:36.613Z,99204.94
2023-01-30T22:24:29.639Z,99199.77
2023-01-30T22:29:22.527Z,99208.44
2023-01-30T22:34:15.362Z,99218.65
2023-01-30T22:39:10.565Z,99223.91
2023-01-30T22:44:05.903Z,99227.64
2023-01-30T22:49:00.770Z,99228.83
2023-01-30T22:53:58.734Z,99238.56
2023-01-30T22:58:52.319Z,99238.43
2023-01-30T23:03:46.714Z,99242.73
2023-01-30T23:08:42.800Z,99239.90
2023-01-30T23:13:36.733Z,99239.92
2023-01-30T23:18:47.794Z,99247.36
2023-01-30T23:23:41.070Z,99251.52
2023-01-30T23:28:37.749Z,99245.75
2023-01-30T23:33:30.645Z,99242.72
2023-01-30T23:38:24.158Z,99251.61
2023-01-30T23:43:18.143Z,99248.91
2023-01-30T23:48:11.616Z,99253.71
2023-01-30T23:53:06.152Z,99253.59
2023-01-30T23:57:59.922Z,99250.04
